createdAt,value
2019-01-29T00:02:21.620Z,20.77
2019-01-29T00:04:48.674Z,26.73
2019-01-29T00:07:15.754Z,17.53
2019-01-29T00:09:42.825Z,14.40
2019-01-29T00:12:09.886Z,22.20
2019-01-29T00:14:36.975Z,19.40
2019-01-29T00:17:04.326Z,18.57
2019-01-29T00:19:31.387Z,18.10
2019-01-29T00:21:58.464Z,18.03
2019-01-29T00:24:25.523Z,18.77
2019-01-29T00:26:52.591Z,21.70
2019-01-29T00:29:19.807Z,18.37
2019-01-29T00:31:46.866Z,24.60
2019-01-29T00:34:15.751Z,20.37
2019-01-29T00:36:42.830Z,16.23
2019-01-29T00:39:09.885Z,24.47
2019-01-29T00:41:36.928Z,14.83
2019-01-29T00:44:04.002Z,25.73
2019-01-29T00:46:31.070Z,23.40
2019-01-29T00:48:58.229Z,17.77
2019-01-29T00:51:25.310Z,22.37
2019-01-29T00:53:52.396Z,29.47
2019-01-29T00:56:19.486Z,33.90
2019-01-29T00:58:46.616Z,17.17
2019-01-29T01:01:13.690Z,22.03
2019-01-29T01:03:40.780Z,15.20
2019-01-29T01:06:07.847Z,23.83
2019-01-29T01:08:35.004Z,23.73
2019-01-29T01:11:02.055Z,23.13
2019-01-29T01:13:29.117Z,19.70
2019-01-29T01:15:56.435Z,19.07
2019-01-29T01:18:23.477Z,18.17
2019-01-29T01:20:50.590Z,19.77
2019-01-29T01:23:17.603Z,23.10
2019-01-29T01:25:44.685Z,16.67
2019-01-29T01:28:11.760Z,21.90
2019-01-29T01:30:38.862Z,20.83
2019-01-29T01:33:05.901Z,18.03
2019-01-29T01:35:32.975Z,17.23
2019-01-29T01:38:00.278Z,17.27
2019-01-29T01:40:27.346Z,17.97
2019-01-29T01:42:54.426Z,19.80
2019-01-29T01:45:21.507Z,17.57
2019-01-29T01:47:48.573Z,13.53
2019-01-29T01:50:15.633Z,13.27
2019-01-29T01:52:42.742Z,21.13
2019-01-29T01:55:11.922Z,26.07
2019-01-29T01:57:39.071Z,22.47
2019-01-29T02:00:08.971Z,19.53
2019-01-29T02:02:36.039Z,12.57
2019-01-29T02:05:04.143Z,16.33
2019-01-29T02:09:55.135Z,14.60
2019-01-29T02:12:22.208Z,24.17
2019-01-29T02:14:49.261Z,18.40
2019-01-29T02:17:16.316Z,25.37
2019-01-29T02:19:43.521Z,15.83
2019-01-29T02:22:10.977Z,21.53
2019-01-29T02:24:38.020Z,15.63
2019-01-29T02:27:26.277Z,22.07
2019-01-29T02:29:53.330Z,18.53
2019-01-29T02:32:21.500Z,14.27
2019-01-29T02:34:48.569Z,20.43
2019-01-29T02:37:16.535Z,15.93
2019-01-29T02:39:43.592Z,18.77
2019-01-29T02:42:10.863Z,18.13
2019-01-29T02:44:37.917Z,24.30
2019-01-29T02:47:06.243Z,17.13
2019-01-29T02:49:33.311Z,14.87
2019-01-29T02:52:00.420Z,18.50
2019-01-29T02:54:27.494Z,20.50
2019-01-29T02:56:54.558Z,17.33
2019-01-29T02:59:21.631Z,23.03
2019-01-29T03:01:49.819Z,18.90
2019-01-29T03:04:16.881Z,19.80
2019-01-29T03:06:43.927Z,23.70
2019-01-29T03:09:11.033Z,31.27
2019-01-29T03:11:38.093Z,16.87
2019-01-29T03:14:05.140Z,22.83
2019-01-29T03:16:32.226Z,27.63
2019-01-29T03:18:59.277Z,25.20
2019-01-29T03:21:26.455Z,22.93
2019-01-29T03:23:53.523Z,23.07
2019-01-29T03:26:20.572Z,29.33
2019-01-29T03:28:47.612Z,28.47
2019-01-29T03:31:14.701Z,31.53
2019-01-29T03:33:41.779Z,25.87
2019-01-29T03:36:08.823Z,26.10
2019-01-29T03:38:35.943Z,30.57
2019-01-29T03:41:03.025Z,24.27
2019-01-29T03:43:30.096Z,27.27
2019-01-29T03:45:57.209Z,25.07
2019-01-29T03:48:24.289Z,30.10
2019-01-29T03:50:51.453Z,26.13
2019-01-29T03:53:18.551Z,25.03
2019-01-29T03:55:45.647Z,21.87
2019-01-29T03:58:12.693Z,24.57
2019-01-29T04:00:39.802Z,32.17
2019-01-29T04:03:06.856Z,27.90
2019-01-29T04:05:33.973Z,30.50
2019-01-29T04:08:01.024Z,22.77
2019-01-29T04:10:28.092Z,37.17
2019-01-29T04:12:55.165Z,28.43
2019-01-29T04:15:23.017Z,26.40
2019-01-29T04:17:55.858Z,32.47
2019-01-29T04:20:23.373Z,38.27
2019-01-29T04:22:50.521Z,33.47
2019-01-29T04:25:17.608Z,38.47
2019-01-29T04:27:44.687Z,42.23
2019-01-29T04:30:16.762Z,43.13
2019-01-29T04:32:43.993Z,42.57
2019-01-29T04:35:13.095Z,38.43
2019-01-29T04:37:40.129Z,45.17
2019-01-29T04:40:09.265Z,50.23
2019-01-29T04:42:36.320Z,47.07
2019-01-29T04:45:05.176Z,49.23
2019-01-29T04:47:34.076Z,51.57
2019-01-29T04:50:01.101Z,52.27
2019-01-29T04:52:28.151Z,53.13
2019-01-29T04:54:55.242Z,53.30
2019-01-29T04:57:22.426Z,53.30
2019-01-29T04:59:49.574Z,57.67
2019-01-29T05:02:16.752Z,59.90
2019-01-29T05:04:43.785Z,56.60
2019-01-29T05:07:10.843Z,64.13
2019-01-29T05:09:38.030Z,65.40
2019-01-29T05:12:05.129Z,69.83
2019-01-29T05:14:35.888Z,78.63
2019-01-29T05:17:03.123Z,75.27
2019-01-29T05:19:30.258Z,77.60
2019-01-29T05:21:57.341Z,78.07
2019-01-29T05:24:24.921Z,74.63
2019-01-29T05:26:52.159Z,78.43
2019-01-29T05:29:19.219Z,77.80
2019-01-29T05:31:47.372Z,95.33
2019-01-29T05:34:14.564Z,85.50
2019-01-29T05:36:41.625Z,82.60
2019-01-29T05:39:09.358Z,88.23
2019-01-29T05:41:36.484Z,96.27
2019-01-29T05:44:03.953Z,97.80
2019-01-29T05:46:30.991Z,87.20
2019-01-29T05:48:58.215Z,86.80
2019-01-29T05:51:25.289Z,89.00
2019-01-29T05:53:52.330Z,78.20
2019-01-29T05:56:19.400Z,78.60
2019-01-29T05:58:46.527Z,78.00
2019-01-29T06:01:13.590Z,77.83
2019-01-29T06:03:40.724Z,94.63
2019-01-29T06:06:07.796Z,75.77
2019-01-29T06:08:34.869Z,73.83
2019-01-29T06:11:02.013Z,81.93
2019-01-29T06:13:29.164Z,73.53
2019-01-29T06:15:56.227Z,72.93
2019-01-29T06:18:23.393Z,72.23
2019-01-29T06:21:10.718Z,89.63
2019-01-29T06:23:37.797Z,80.47
2019-01-29T06:26:04.856Z,79.53
2019-01-29T06:28:31.905Z,78.70
2019-01-29T06:30:59.023Z,75.40
2019-01-29T06:33:26.089Z,71.13
2019-01-29T06:35:53.132Z,73.10
2019-01-29T06:38:20.240Z,80.23
2019-01-29T06:40:47.330Z,68.17
2019-01-29T06:43:14.418Z,62.63
2019-01-29T06:45:41.516Z,69.20
2019-01-29T06:48:08.555Z,78.63
2019-01-29T06:50:35.639Z,72.07
2019-01-29T06:53:02.917Z,71.17
2019-01-29T06:55:30.056Z,82.27
2019-01-29T06:57:57.107Z,80.93
2019-01-29T07:00:26.963Z,67.57
2019-01-29T07:02:54.531Z,70.13
2019-01-29T07:05:21.609Z,83.70
2019-01-29T07:07:48.726Z,73.80
2019-01-29T07:10:17.016Z,83.17
2019-01-29T07:12:44.485Z,76.03
2019-01-29T07:15:34.174Z,73.33
2019-01-29T07:18:01.485Z,69.87
2019-01-29T07:20:28.554Z,78.30
2019-01-29T07:22:58.241Z,73.73
2019-01-29T07:25:25.365Z,72.93
2019-01-29T07:27:52.491Z,70.70
2019-01-29T07:30:19.546Z,64.00
2019-01-29T07:32:46.647Z,76.57
2019-01-29T07:35:13.744Z,68.07
2019-01-29T07:37:40.951Z,66.90
2019-01-29T07:40:08.606Z,62.00
2019-01-29T07:42:35.699Z,59.10
2019-01-29T07:45:03.636Z,66.33
2019-01-29T07:47:30.751Z,77.70
2019-01-29T07:50:00.641Z,60.73
2019-01-29T07:52:27.838Z,58.50
2019-01-29T07:54:54.876Z,67.23
2019-01-29T07:57:21.995Z,67.40
2019-01-29T07:59:49.097Z,66.73
2019-01-29T08:02:16.180Z,68.57
2019-01-29T08:04:43.398Z,59.17
2019-01-29T08:07:10.551Z,64.43
2019-01-29T08:09:37.633Z,55.17
2019-01-29T08:12:04.967Z,65.47
2019-01-29T08:14:32.033Z,66.00
2019-01-29T08:16:59.082Z,74.97
2019-01-29T08:19:26.318Z,55.40
2019-01-29T08:21:53.519Z,56.27
2019-01-29T08:24:20.600Z,53.50
2019-01-29T08:26:47.761Z,57.40
2019-01-29T08:29:14.810Z,54.63
2019-01-29T08:31:41.857Z,49.10
2019-01-29T08:34:08.960Z,42.17
2019-01-29T08:36:36.046Z,45.83
2019-01-29T08:39:06.559Z,52.47
2019-01-29T08:41:33.706Z,48.77
2019-01-29T08:44:00.811Z,37.60
2019-01-29T08:46:27.878Z,40.17
2019-01-29T08:48:55.017Z,42.93
2019-01-29T08:51:22.144Z,42.43
2019-01-29T08:53:49.316Z,38.80
2019-01-29T08:56:16.451Z,45.87
2019-01-29T08:58:45.022Z,40.73
2019-01-29T09:01:12.093Z,61.33
2019-01-29T09:03:39.168Z,37.40
2019-01-29T09:06:06.265Z,36.97
2019-01-29T09:08:33.327Z,37.93
2019-01-29T09:11:00.405Z,34.43
2019-01-29T09:13:27.478Z,33.67
2019-01-29T09:15:54.522Z,35.73
2019-01-29T09:18:21.726Z,33.73
2019-01-29T09:20:48.927Z,36.53
2019-01-29T09:23:15.976Z,39.27
2019-01-29T09:25:43.051Z,35.77
2019-01-29T09:29:05.646Z,36.93
2019-01-29T09:31:32.833Z,36.87
2019-01-29T09:33:59.908Z,36.07
2019-01-29T09:36:27.080Z,39.63
2019-01-29T09:38:54.138Z,37.27
2019-01-29T09:41:21.299Z,36.07
2019-01-29T09:43:48.653Z,30.83
2019-01-29T09:46:15.716Z,38.10
2019-01-29T09:48:42.779Z,31.93
2019-01-29T09:51:09.889Z,31.00
2019-01-29T09:53:36.941Z,28.93
2019-01-29T09:56:04.079Z,35.20
2019-01-29T09:58:31.208Z,28.00
2019-01-29T10:00:58.254Z,32.37
2019-01-29T10:03:25.325Z,34.53
2019-01-29T10:05:52.413Z,27.63
2019-01-29T10:08:19.454Z,29.60
2019-01-29T10:10:46.543Z,24.47
2019-01-29T10:13:13.672Z,30.60
2019-01-29T10:15:40.699Z,20.83
2019-01-29T10:18:07.779Z,22.13
2019-01-29T10:20:34.966Z,22.50
2019-01-29T10:23:01.997Z,27.57
2019-01-29T10:25:48.416Z,20.53
2019-01-29T10:28:15.469Z,28.27
2019-01-29T10:30:44.339Z,18.57
2019-01-29T10:33:11.401Z,17.97
2019-01-29T10:35:38.450Z,21.87
2019-01-29T10:38:05.499Z,16.70
2019-01-29T10:40:32.593Z,22.67
2019-01-29T10:43:00.044Z,13.60
2019-01-29T10:45:28.623Z,16.23
2019-01-29T10:47:55.720Z,15.50
2019-01-29T10:50:24.895Z,12.47
2019-01-29T10:52:53.576Z,15.00
2019-01-29T10:55:20.929Z,16.90
2019-01-29T10:57:48.099Z,15.83
2019-01-29T11:00:23.774Z,14.07
2019-01-29T11:02:51.137Z,17.23
2019-01-29T11:05:18.917Z,19.03
2019-01-29T11:07:55.143Z,20.37
2019-01-29T11:10:22.309Z,12.97
2019-01-29T11:12:49.421Z,10.17
2019-01-29T11:15:28.640Z,23.67
2019-01-29T11:17:55.792Z,17.80
2019-01-29T11:20:23.166Z,19.90
2019-01-29T11:22:50.237Z,14.70
2019-01-29T11:25:20.323Z,19.13
2019-01-29T11:27:47.538Z,15.80
2019-01-29T11:30:16.822Z,14.77
2019-01-29T11:32:43.889Z,16.83
2019-01-29T11:35:11.168Z,15.63
2019-01-29T11:37:38.311Z,20.27
2019-01-29T11:40:08.691Z,12.80
2019-01-29T11:42:35.728Z,14.43
2019-01-29T11:45:04.019Z,17.63
2019-01-29T11:47:31.131Z,17.03
2019-01-29T11:49:58.187Z,15.03
2019-01-29T11:52:25.367Z,12.43
2019-01-29T11:54:52.431Z,13.53
2019-01-29T11:57:19.494Z,16.93
2019-01-29T11:59:46.628Z,17.13
2019-01-29T12:02:13.702Z,17.10
2019-01-29T12:04:40.775Z,17.63
2019-01-29T12:07:07.914Z,14.60
2019-01-29T12:09:34.972Z,20.17
2019-01-29T12:12:02.079Z,19.37
2019-01-29T12:14:29.152Z,14.00
2019-01-29T12:16:56.258Z,15.37
2019-01-29T12:19:23.315Z,13.63
2019-01-29T12:21:50.387Z,15.27
2019-01-29T12:24:17.434Z,13.47
2019-01-29T12:26:44.502Z,17.33
2019-01-29T12:29:11.809Z,12.47
2019-01-29T12:31:39.061Z,15.17
2019-01-29T12:34:25.199Z,16.50
2019-01-29T12:36:52.266Z,13.40
2019-01-29T12:39:19.497Z,15.97
2019-01-29T12:41:46.599Z,12.33
2019-01-29T12:44:13.743Z,12.30
2019-01-29T12:46:40.917Z,13.93
2019-01-29T12:49:08.161Z,13.20
2019-01-29T12:52:04.134Z,14.77
2019-01-29T12:54:31.226Z,14.07
2019-01-29T12:56:58.345Z,12.80
2019-01-29T12:59:25.523Z,8.73
2019-01-29T13:01:52.569Z,10.63
2019-01-29T13:04:19.816Z,14.13
2019-01-29T13:06:46.920Z,14.50
2019-01-29T13:09:14.348Z,9.33
2019-01-29T13:12:24.033Z,14.43
2019-01-29T13:14:51.135Z,11.57
2019-01-29T13:17:18.221Z,15.30
2019-01-29T13:19:45.302Z,10.83
2019-01-29T13:22:12.385Z,10.67
2019-01-29T13:24:39.437Z,8.97
2019-01-29T13:27:06.505Z,9.47
2019-01-29T13:29:33.796Z,15.27
2019-01-29T13:32:02.703Z,7.20
2019-01-29T13:34:29.776Z,8.17
2019-01-29T13:36:59.005Z,14.07
2019-01-29T13:39:26.094Z,7.07
2019-01-29T13:41:53.143Z,6.83
2019-01-29T13:44:20.188Z,8.20
2019-01-29T13:46:47.400Z,7.13
2019-01-29T13:49:14.485Z,14.10
2019-01-29T13:51:41.515Z,8.60
2019-01-29T13:54:08.588Z,11.13
2019-01-29T13:56:38.909Z,7.07
2019-01-29T13:59:04.618Z,9.47
2019-01-29T14:01:31.738Z,10.03
2019-01-29T14:04:05.972Z,10.27
2019-01-29T14:06:27.727Z,22.10
2019-01-29T14:08:54.826Z,10.87
2019-01-29T14:11:21.976Z,7.13
2019-01-29T14:13:49.089Z,7.33
2019-01-29T14:16:16.169Z,8.07
2019-01-29T14:18:43.210Z,7.57
2019-01-29T14:21:10.266Z,16.13
2019-01-29T14:23:37.365Z,10.30
2019-01-29T14:26:04.419Z,8.20
2019-01-29T14:28:31.453Z,12.77
2019-01-29T14:30:59.739Z,11.57
2019-01-29T14:33:26.953Z,7.20
2019-01-29T14:35:54.037Z,8.60
2019-01-29T14:39:01.569Z,8.40
2019-01-29T14:41:28.640Z,7.57
2019-01-29T14:43:57.660Z,8.47
2019-01-29T14:47:03.099Z,13.27
2019-01-29T14:49:30.142Z,7.80
2019-01-29T14:51:57.196Z,10.90
2019-01-29T14:54:24.384Z,10.20
2019-01-29T14:56:56.628Z,11.50
2019-01-29T14:59:20.411Z,12.07
2019-01-29T15:01:47.507Z,13.50
2019-01-29T15:04:14.608Z,21.10
2019-01-29T15:06:41.662Z,13.50
2019-01-29T15:09:10.789Z,8.73
2019-01-29T15:11:37.831Z,13.40
2019-01-29T15:14:05.033Z,10.13
2019-01-29T15:16:52.011Z,13.17
2019-01-29T15:19:21.286Z,8.27
2019-01-29T15:21:48.763Z,12.83
2019-01-29T15:24:17.914Z,11.07
2019-01-29T15:26:44.961Z,15.23
2019-01-29T15:29:12.133Z,29.63
2019-01-29T15:31:39.236Z,9.87
2019-01-29T15:34:06.375Z,15.27
2019-01-29T15:36:33.668Z,12.53
2019-01-29T15:39:00.788Z,13.73
2019-01-29T15:41:27.914Z,10.20
2019-01-29T15:43:54.975Z,9.17
2019-01-29T15:46:22.112Z,9.47
2019-01-29T15:48:49.216Z,12.00
2019-01-29T15:51:16.308Z,13.87
2019-01-29T15:53:43.390Z,13.40
2019-01-29T15:56:10.518Z,9.50
2019-01-29T15:58:37.640Z,10.47
2019-01-29T16:01:04.842Z,11.60
2019-01-29T16:03:32.051Z,7.47
2019-01-29T16:05:59.119Z,11.03
2019-01-29T16:08:26.194Z,13.10
2019-01-29T16:10:54.280Z,14.77
2019-01-29T16:13:21.446Z,11.20
2019-01-29T16:15:48.524Z,10.07
2019-01-29T16:18:15.706Z,12.63
2019-01-29T16:20:44.631Z,20.03
2019-01-29T16:23:11.723Z,9.60
2019-01-29T16:25:39.062Z,9.57
2019-01-29T16:28:06.185Z,9.57
2019-01-29T16:30:33.259Z,14.10
2019-01-29T16:33:00.473Z,12.67
2019-01-29T16:35:29.729Z,13.63
2019-01-29T16:37:58.328Z,15.20
2019-01-29T16:40:26.273Z,12.20
2019-01-29T16:42:53.391Z,10.63
2019-01-29T16:45:23.515Z,15.17
2019-01-29T16:47:50.979Z,11.80
2019-01-29T16:50:18.467Z,13.30
2019-01-29T16:52:45.517Z,17.00
2019-01-29T16:55:14.737Z,13.07
2019-01-29T16:57:41.874Z,12.90
2019-01-29T17:00:15.944Z,16.90
2019-01-29T17:02:43.057Z,9.63
2019-01-29T17:05:10.293Z,17.33
2019-01-29T17:07:37.451Z,13.47
2019-01-29T17:10:05.684Z,10.20
2019-01-29T17:12:34.592Z,16.10
2019-01-29T17:15:01.694Z,17.57
2019-01-29T17:17:28.862Z,11.90
2019-01-29T17:19:56.297Z,12.57
2019-01-29T17:22:23.641Z,14.13
2019-01-29T17:24:50.733Z,16.63
2019-01-29T17:27:17.791Z,11.00
2019-01-29T17:29:44.846Z,14.23
2019-01-29T17:32:11.961Z,11.00
2019-01-29T17:34:39.116Z,13.07
2019-01-29T17:37:06.303Z,11.63
2019-01-29T17:39:33.400Z,13.33
2019-01-29T17:42:00.438Z,18.30
2019-01-29T17:44:27.505Z,12.23
2019-01-29T17:46:54.599Z,11.67
2019-01-29T17:49:21.710Z,11.23
2019-01-29T17:51:48.782Z,12.30
2019-01-29T17:54:15.885Z,17.03
2019-01-29T17:56:43.076Z,12.07
2019-01-29T17:59:10.141Z,16.23
2019-01-29T18:01:37.292Z,14.53
2019-01-29T18:04:04.738Z,9.60
2019-01-29T18:06:31.788Z,18.63
2019-01-29T18:08:58.854Z,13.17
2019-01-29T18:11:25.982Z,12.77
2019-01-29T18:13:53.370Z,14.37
2019-01-29T18:16:20.557Z,11.43
2019-01-29T18:18:47.664Z,11.77
2019-01-29T18:21:14.923Z,16.70
2019-01-29T18:23:41.937Z,17.33
2019-01-29T18:26:09.035Z,17.00
2019-01-29T18:28:36.155Z,19.43
2019-01-29T18:31:03.505Z,18.70
2019-01-29T18:33:30.673Z,14.53
2019-01-29T18:35:57.816Z,15.00
2019-01-29T18:38:25.247Z,17.43
2019-01-29T18:40:54.408Z,19.70
2019-01-29T18:43:21.494Z,20.27
2019-01-29T18:45:48.618Z,19.27
2019-01-29T18:48:15.980Z,10.47
2019-01-29T18:50:43.041Z,24.40
2019-01-29T18:53:10.874Z,17.83
2019-01-29T18:55:41.094Z,12.23
2019-01-29T18:58:11.928Z,16.03
2019-01-29T19:00:38.044Z,15.10
2019-01-29T19:03:05.140Z,16.10
2019-01-29T19:05:32.216Z,14.00
2019-01-29T19:07:59.375Z,16.63
2019-01-29T19:10:26.629Z,19.17
2019-01-29T19:12:53.771Z,24.13
2019-01-29T19:15:22.263Z,18.80
2019-01-29T19:17:49.501Z,12.33
2019-01-29T19:20:18.926Z,17.53
2019-01-29T19:22:46.172Z,15.87
2019-01-29T19:25:13.623Z,15.53
2019-01-29T19:27:40.672Z,15.10
2019-01-29T19:30:17.038Z,16.63
2019-01-29T19:32:44.190Z,16.10
2019-01-29T19:35:11.257Z,17.27
2019-01-29T19:37:38.420Z,18.20
2019-01-29T19:40:06.418Z,16.50
2019-01-29T19:42:33.652Z,18.70
2019-01-29T19:45:00.757Z,14.23
2019-01-29T19:47:27.857Z,25.93
2019-01-29T19:49:55.097Z,21.07
2019-01-29T19:52:22.446Z,18.53
2019-01-29T19:54:49.488Z,14.60
2019-01-29T19:57:16.603Z,21.50
2019-01-29T19:59:43.704Z,17.53
2019-01-29T20:02:11.368Z,14.73
2019-01-29T20:04:38.634Z,18.43
2019-01-29T20:07:06.692Z,16.73
2019-01-29T20:09:33.766Z,22.77
2019-01-29T20:12:00.857Z,14.03
2019-01-29T20:14:27.979Z,21.47
2019-01-29T20:16:55.074Z,19.23
2019-01-29T20:19:22.203Z,13.30
2019-01-29T20:21:49.385Z,17.23
2019-01-29T20:24:17.078Z,13.70
2019-01-29T20:26:44.222Z,17.73
2019-01-29T20:29:12.480Z,14.33
2019-01-29T20:31:39.594Z,12.70
2019-01-29T20:34:06.669Z,13.47
2019-01-29T20:36:33.894Z,15.33
2019-01-29T20:39:01.052Z,18.80
2019-01-29T20:41:28.299Z,13.33
2019-01-29T20:43:55.468Z,15.57
2019-01-29T20:46:22.546Z,12.60
2019-01-29T20:48:49.875Z,13.80
2019-01-29T20:51:17.095Z,15.77
2019-01-29T20:53:44.303Z,19.63
2019-01-29T20:56:11.439Z,17.20
2019-01-29T20:58:38.654Z,17.17
2019-01-29T21:01:05.837Z,11.17
2019-01-29T21:03:33.011Z,15.47
2019-01-29T21:06:00.141Z,16.90
2019-01-29T21:08:27.237Z,15.17
2019-01-29T21:10:54.562Z,19.20
2019-01-29T21:13:21.655Z,19.20
2019-01-29T21:15:48.773Z,22.13
2019-01-29T21:18:15.860Z,20.17
2019-01-29T21:20:42.969Z,16.00
2019-01-29T21:23:10.061Z,15.50
2019-01-29T21:25:37.275Z,12.93
2019-01-29T21:28:04.391Z,15.93
2019-01-29T21:30:36.925Z,27.87
2019-01-29T21:33:06.025Z,18.13
2019-01-29T21:35:33.245Z,18.40
2019-01-29T21:38:00.315Z,12.77
2019-01-29T21:40:27.723Z,20.83
2019-01-29T21:42:55.023Z,17.87
2019-01-29T21:46:00.078Z,14.87
2019-01-29T21:48:27.229Z,19.17
2019-01-29T21:50:54.300Z,21.13
2019-01-29T21:53:21.426Z,17.07
2019-01-29T21:55:48.506Z,20.03
2019-01-29T21:58:15.583Z,21.83
2019-01-29T22:00:44.165Z,18.67
2019-01-29T22:03:12.122Z,12.97
2019-01-29T22:05:39.339Z,15.97
2019-01-29T22:08:08.316Z,29.40
2019-01-29T22:10:35.406Z,22.67
2019-01-29T22:13:02.625Z,19.03
2019-01-29T22:15:29.835Z,19.07
2019-01-29T22:17:56.985Z,24.20
2019-01-29T22:20:24.335Z,21.00
2019-01-29T22:22:51.514Z,18.60
2019-01-29T22:25:18.804Z,27.63
2019-01-29T22:27:46.083Z,21.17
2019-01-29T22:30:27.456Z,21.63
2019-01-29T22:32:54.610Z,20.63
2019-01-29T22:35:21.804Z,22.03
2019-01-29T22:37:48.923Z,20.60
2019-01-29T22:40:20.653Z,15.40
2019-01-29T22:42:47.812Z,19.47
2019-01-29T22:45:15.406Z,17.73
2019-01-29T22:47:42.597Z,19.27
2019-01-29T22:50:13.621Z,15.83
2019-01-29T22:52:40.692Z,20.37
2019-01-29T22:55:08.668Z,19.30
2019-01-29T22:57:35.871Z,17.90
2019-01-29T23:00:11.535Z,15.40
2019-01-29T23:02:38.715Z,17.07
2019-01-29T23:05:06.121Z,25.67
2019-01-29T23:07:36.093Z,15.47
2019-01-29T23:10:07.402Z,20.63
2019-01-29T23:12:34.485Z,16.17
2019-01-29T23:15:01.639Z,17.43
2019-01-29T23:17:30.491Z,15.00
2019-01-29T23:19:57.625Z,15.03
2019-01-29T23:22:24.690Z,16.93
2019-01-29T23:24:51.801Z,18.20
2019-01-29T23:27:18.882Z,15.57
2019-01-29T23:29:45.971Z,16.23
2019-01-29T23:32:13.032Z,12.97
2019-01-29T23:34:40.193Z,16.73
2019-01-29T23:37:07.257Z,12.07
2019-01-29T23:39:34.330Z,16.47
2019-01-29T23:42:02.201Z,12.67
2019-01-29T23:44:29.292Z,14.17
2019-01-29T23:46:56.345Z,15.40
2019-01-29T23:49:23.450Z,11.37
2019-01-29T23:51:50.555Z,11.07
2019-01-29T23:54:17.643Z,15.47
2019-01-29T23:56:44.742Z,14.60
2019-01-29T23:59:11.854Z,16.87
